Time;durP1;ratioP1;P1;durP2;ratioP2;P2;SDS_P1;SDS_P2;PMS_P1;PMS_P2;Temp;Humidity;BMP_temperature;BMP_pressure;BME280_temperature;BME280_humidity;BME280_pressure;Samples;Min_cycle;Max_cycle;Signal;HPM_P1;HPM_P2
2024/01/22 00:03:09;;;;;;;5.70;1.50;;;;;;;;;;8225411;28;20293;-62
2024/01/22 00:07:10;;;;;;;3.83;1.27;;;;;;;;;;8230711;28;20389;-62
2024/01/22 00:11:10;;;;;;;1.42;1.30;;;;;;;;;;8229919;28;20037;-62
2024/01/22 00:15:11;;;;;;;3.22;1.83;;;;;;;;;;8228369;28;20245;-61
2024/01/22 00:19:11;;;;;;;4.67;1.60;;;;;;;;;;8221571;28;20488;-61
2024/01/22 00:23:11;;;;;;;2.75;1.50;;;;;;;;;;8224430;28;20844;-62
2024/01/22 00:27:11;;;;;;;3.20;1.60;;;;;;;;;;8231213;28;20022;-61
2024/01/22 00:31:11;;;;;;;3.85;1.50;;;;;;;;;;8220697;28;20033;-61
2024/01/22 00:35:12;;;;;;;3.38;1.50;;;;;;;;;;8213450;28;20030;-61
2024/01/22 00:39:12;;;;;;;2.23;1.40;;;;;;;;;;8210368;28;20053;-62
2024/01/22 00:43:12;;;;;;;3.70;1.55;;;;;;;;;;8212453;28;20652;-61
2024/01/22 00:47:12;;;;;;;3.63;1.30;;;;;;;;;;8214576;28;20038;-62
2024/01/22 00:51:12;;;;;;;4.18;1.30;;;;;;;;;;8213063;28;20022;-61
2024/01/22 00:55:13;;;;;;;3.92;1.40;;;;;;;;;;8213191;28;20096;-61
2024/01/22 00:59:13;;;;;;;2.93;1.37;;;;;;;;;;8212342;28;20041;-61
2024/01/22 01:03:13;;;;;;;5.07;1.50;;;;;;;;;;8215012;28;20731;-61
2024/01/22 01:07:13;;;;;;;2.17;1.10;;;;;;;;;;8216777;28;20018;-61
2024/01/22 01:11:13;;;;;;;3.00;1.20;;;;;;;;;;8220213;28;20022;-61
2024/01/22 01:15:14;;;;;;;1.95;1.25;;;;;;;;;;8218337;28;20651;-62
2024/01/22 01:19:14;;;;;;;3.60;1.55;;;;;;;;;;8219087;28;20034;-62
2024/01/22 01:23:14;;;;;;;2.60;1.48;;;;;;;;;;8219154;28;20399;-62
2024/01/22 01:27:16;;;;;;;2.53;1.30;;;;;;;;;;8217123;28;20034;-62
2024/01/22 01:31:16;;;;;;;4.07;1.38;;;;;;;;;;8218785;28;20351;-62
2024/01/22 01:35:16;;;;;;;3.03;1.40;;;;;;;;;;8219496;28;20467;-62
2024/01/22 01:39:16;;;;;;;2.80;1.40;;;;;;;;;;8215090;28;20064;-61
2024/01/22 01:43:20;;;;;;;3.15;1.30;;;;;;;;;;8221298;28;20034;-61
2024/01/22 01:47:20;;;;;;;2.88;1.52;;;;;;;;;;8217476;28;20038;-63
2024/01/22 01:51:21;;;;;;;2.63;1.10;;;;;;;;;;8216764;28;20018;-61
2024/01/22 01:55:21;;;;;;;2.38;1.33;;;;;;;;;;8218875;28;20871;-60
2024/01/22 01:59:22;;;;;;;2.90;1.30;;;;;;;;;;8221320;28;20019;-60
2024/01/22 02:03:23;;;;;;;2.25;1.25;;;;;;;;;;8214845;28;20501;-60
2024/01/22 02:07:23;;;;;;;2.22;1.20;;;;;;;;;;8222243;28;20109;-60
2024/01/22 02:11:24;;;;;;;3.25;1.38;;;;;;;;;;8215343;28;20019;-60
2024/01/22 02:15:24;;;;;;;2.60;1.17;;;;;;;;;;8214678;28;20617;-60
2024/01/22 02:19:24;;;;;;;1.73;0.90;;;;;;;;;;8219803;28;20117;-60
2024/01/22 02:23:25;;;;;;;3.35;1.20;;;;;;;;;;8216300;28;20056;-59
2024/01/22 02:27:26;;;;;;;2.30;1.20;;;;;;;;;;8237354;28;20029;-59
2024/01/22 02:31:27;;;;;;;4.55;1.23;;;;;;;;;;8226564;28;20068;-59
2024/01/22 02:35:28;;;;;;;2.63;1.05;;;;;;;;;;8230440;28;20037;-59
2024/01/22 02:39:30;;;;;;;3.70;1.20;;;;;;;;;;8236413;28;20039;-59
2024/01/22 02:43:31;;;;;;;1.90;1.00;;;;;;;;;;8245301;28;20034;-59
2024/01/22 02:47:31;;;;;;;3.42;1.08;;;;;;;;;;8237322;28;20161;-58
2024/01/22 02:51:33;;;;;;;2.30;1.13;;;;;;;;;;8228481;28;20026;-60
2024/01/22 02:55:34;;;;;;;2.28;1.20;;;;;;;;;;8239406;28;20033;-59
2024/01/22 02:59:36;;;;;;;1.95;1.05;;;;;;;;;;8224064;28;20030;-58
2024/01/22 03:03:36;;;;;;;3.00;0.95;;;;;;;;;;8221647;28;20157;-58
2024/01/22 03:07:36;;;;;;;5.28;1.02;;;;;;;;;;8217423;28;20594;-57
2024/01/22 03:11:36;;;;;;;1.15;1.00;;;;;;;;;;8216954;28;20026;-57
2024/01/22 03:15:37;;;;;;;3.00;1.20;;;;;;;;;;8213618;28;20037;-57
2024/01/22 03:19:37;;;;;;;3.28;1.25;;;;;;;;;;8212834;28;20364;-57
2024/01/22 03:23:37;;;;;;;2.47;1.13;;;;;;;;;;8216470;28;20030;-57
2024/01/22 03:27:37;;;;;;;2.17;1.08;;;;;;;;;;8226036;28;20141;-58
2024/01/22 03:31:38;;;;;;;3.35;1.15;;;;;;;;;;8226208;28;20034;-58
2024/01/22 03:35:38;;;;;;;3.30;1.20;;;;;;;;;;8216899;28;20036;-56
2024/01/22 03:39:38;;;;;;;3.58;1.23;;;;;;;;;;8210470;28;20118;-57
2024/01/22 03:43:40;;;;;;;2.57;1.17;;;;;;;;;;8217047;28;20037;-57
2024/01/22 03:47:40;;;;;;;3.00;1.10;;;;;;;;;;8214504;28;20321;-58
2024/01/22 03:51:42;;;;;;;3.38;1.45;;;;;;;;;;8218544;28;20042;-57
2024/01/22 03:55:42;;;;;;;6.78;1.30;;;;;;;;;;8214402;28;20507;-56
2024/01/22 03:59:42;;;;;;;2.92;1.20;;;;;;;;;;8214155;28;20032;-57
2024/01/22 04:03:42;;;;;;;2.70;1.10;;;;;;;;;;8215620;28;20560;-57
2024/01/22 04:07:42;;;;;;;2.00;1.00;;;;;;;;;;8223085;28;20415;-58
2024/01/22 04:11:42;;;;;;;2.25;1.17;;;;;;;;;;8222933;28;20140;-58
2024/01/22 04:15:43;;;;;;;2.95;1.08;;;;;;;;;;8217384;28;20061;-58
2024/01/22 04:19:43;;;;;;;2.15;1.20;;;;;;;;;;8202922;28;20400;-58
2024/01/22 04:23:43;;;;;;;4.10;1.37;;;;;;;;;;8205977;28;20118;-58
2024/01/22 04:27:43;;;;;;;3.22;1.10;;;;;;;;;;8204872;28;20277;-57
2024/01/22 04:31:44;;;;;;;5.20;1.55;;;;;;;;;;8204929;28;20179;-58
2024/01/22 04:35:44;;;;;;;2.80;1.10;;;;;;;;;;8206089;28;20165;-56
2024/01/22 04:39:44;;;;;;;3.25;1.00;;;;;;;;;;8208067;28;20487;-56
2024/01/22 04:43:45;;;;;;;2.53;1.15;;;;;;;;;;8211866;28;20022;-56
2024/01/22 04:47:45;;;;;;;1.98;1.10;;;;;;;;;;8212440;28;20088;-58
2024/01/22 04:51:45;;;;;;;4.75;1.20;;;;;;;;;;8210512;28;20382;-58
2024/01/22 04:55:45;;;;;;;2.15;1.25;;;;;;;;;;8213697;28;20030;-57
2024/01/22 04:59:45;;;;;;;2.50;1.03;;;;;;;;;;8209928;28;20050;-57
2024/01/22 05:03:45;;;;;;;4.30;1.10;;;;;;;;;;8210038;28;20297;-57
2024/01/22 05:07:46;;;;;;;2.05;1.40;;;;;;;;;;8210868;28;20623;-57
2024/01/22 05:11:46;;;;;;;5.10;2.10;;;;;;;;;;8208602;28;20037;-57
2024/01/22 05:15:46;;;;;;;3.17;1.20;;;;;;;;;;8206583;28;20057;-56
2024/01/22 05:19:46;;;;;;;2.92;1.10;;;;;;;;;;8203282;28;20025;-56
2024/01/22 05:23:46;;;;;;;3.03;1.30;;;;;;;;;;8210188;28;20034;-57
2024/01/22 05:27:47;;;;;;;1.85;1.13;;;;;;;;;;8208335;28;20026;-57
2024/01/22 05:31:47;;;;;;;2.17;1.17;;;;;;;;;;8208562;28;20782;-56
2024/01/22 05:35:48;;;;;;;2.03;1.20;;;;;;;;;;8212042;28;21474;-59
2024/01/22 05:39:48;;;;;;;3.03;1.38;;;;;;;;;;8207501;28;21163;-57
2024/01/22 05:43:48;;;;;;;3.35;1.30;;;;;;;;;;8206492;28;20029;-57
2024/01/22 05:47:49;;;;;;;1.88;1.00;;;;;;;;;;8208251;28;22609;-57
2024/01/22 05:51:49;;;;;;;3.53;1.00;;;;;;;;;;8215699;28;22551;-58
2024/01/22 05:55:49;;;;;;;1.25;0.90;;;;;;;;;;8213448;28;20307;-57
2024/01/22 05:59:50;;;;;;;3.45;1.23;;;;;;;;;;8212473;28;20479;-57
2024/01/22 06:03:50;;;;;;;1.73;1.10;;;;;;;;;;8208788;28;20688;-58
2024/01/22 06:07:50;;;;;;;3.13;1.00;;;;;;;;;;8211057;28;21804;-58
2024/01/22 06:11:50;;;;;;;4.10;1.15;;;;;;;;;;8211992;28;20125;-61
2024/01/22 06:15:50;;;;;;;4.68;1.17;;;;;;;;;;8219101;28;21501;-58
2024/01/22 06:19:51;;;;;;;3.95;1.38;;;;;;;;;;8214831;28;21125;-59
2024/01/22 06:23:51;;;;;;;2.95;1.10;;;;;;;;;;8214767;28;21154;-60
2024/01/22 06:27:51;;;;;;;4.13;1.10;;;;;;;;;;8215436;28;20459;-58
2024/01/22 06:31:51;;;;;;;1.58;1.13;;;;;;;;;;8223033;28;22672;-59
2024/01/22 06:35:51;;;;;;;2.58;1.30;;;;;;;;;;8222287;28;20698;-58
2024/01/22 06:39:52;;;;;;;2.10;1.00;;;;;;;;;;8231010;28;20348;-59
2024/01/22 06:43:52;;;;;;;2.28;1.10;;;;;;;;;;8237094;28;20399;-58
2024/01/22 06:47:52;;;;;;;2.30;1.30;;;;;;;;;;8235205;28;20058;-59
2024/01/22 06:51:53;;;;;;;1.48;1.00;;;;;;;;;;8232558;28;20592;-59
2024/01/22 06:55:53;;;;;;;3.40;1.30;;;;;;;;;;8235102;28;20030;-58
2024/01/22 06:59:55;;;;;;;3.13;1.08;;;;;;;;;;8222397;28;20045;-58
2024/01/22 07:03:56;;;;;;;2.83;1.20;;;;;;;;;;8220736;28;20045;-58
2024/01/22 07:07:56;;;;;;;2.97;1.23;;;;;;;;;;8227039;28;20026;-59
2024/01/22 07:11:57;;;;;;;2.00;1.30;;;;;;;;;;8228267;28;20029;-59
2024/01/22 07:15:57;;;;;;;2.35;1.15;;;;;;;;;;8233528;28;20522;-58
2024/01/22 07:19:57;;;;;;;4.10;1.27;;;;;;;;;;8233571;28;20092;-59
2024/01/22 07:23:57;;;;;;;2.22;1.20;;;;;;;;;;8226075;28;20121;-58
2024/01/22 07:27:58;;;;;;;2.50;1.40;;;;;;;;;;8231220;28;20037;-58
2024/01/22 07:31:58;;;;;;;1.58;1.20;;;;;;;;;;8224934;28;20442;-57
2024/01/22 07:35:58;;;;;;;1.55;1.27;;;;;;;;;;8228882;28;20034;-58
2024/01/22 07:39:58;;;;;;;2.72;1.25;;;;;;;;;;8213782;28;20123;-59
2024/01/22 07:43:58;;;;;;;2.47;1.40;;;;;;;;;;8215398;28;20069;-57
2024/01/22 07:47:58;;;;;;;1.63;1.30;;;;;;;;;;8222818;28;20892;-57
2024/01/22 07:51:59;;;;;;;1.15;1.00;;;;;;;;;;8222318;28;20614;-57
2024/01/22 07:55:59;;;;;;;3.33;1.40;;;;;;;;;;8222387;28;20073;-58
2024/01/22 07:59:59;;;;;;;3.63;1.80;;;;;;;;;;8226482;28;20089;-57
2024/01/22 08:04:02;;;;;;;4.33;1.40;;;;;;;;;;8221284;28;20049;-56
2024/01/22 08:08:03;;;;;;;1.63;1.23;;;;;;;;;;8217524;28;20271;-58
2024/01/22 08:12:03;;;;;;;3.17;1.30;;;;;;;;;;8220846;28;20030;-58
2024/01/22 08:16:04;;;;;;;3.22;1.35;;;;;;;;;;8220988;28;20129;-58
2024/01/22 08:20:06;;;;;;;2.55;1.40;;;;;;;;;;8225773;28;20541;-59
2024/01/22 08:24:06;;;;;;;3.30;1.60;;;;;;;;;;8219998;28;20076;-57
2024/01/22 08:28:06;;;;;;;2.17;1.60;;;;;;;;;;8225393;28;20026;-57
2024/01/22 08:32:07;;;;;;;1.30;1.20;;;;;;;;;;8220635;28;20554;-58
2024/01/22 08:36:07;;;;;;;3.95;1.60;;;;;;;;;;8220390;28;20558;-57
2024/01/22 08:40:08;;;;;;;2.67;1.60;;;;;;;;;;8229832;28;20052;-58
2024/01/22 08:44:08;;;;;;;3.30;1.38;;;;;;;;;;8218020;28;20022;-58
2024/01/22 08:48:08;;;;;;;3.53;1.57;;;;;;;;;;8215075;28;21370;-56
2024/01/22 08:52:09;;;;;;;3.47;1.38;;;;;;;;;;8218324;28;20022;-57
2024/01/22 08:56:09;;;;;;;1.20;1.10;;;;;;;;;;8213584;28;20362;-58
2024/01/22 09:00:13;;;;;;;3.65;1.40;;;;;;;;;;8210022;28;20074;-57
2024/01/22 09:04:13;;;;;;;3.20;1.42;;;;;;;;;;8213550;28;20026;-58
2024/01/22 09:08:13;;;;;;;3.05;1.50;;;;;;;;;;8216779;28;20123;-58
2024/01/22 09:12:13;;;;;;;1.52;1.20;;;;;;;;;;8214825;28;20018;-58
2024/01/22 09:16:14;;;;;;;3.97;1.50;;;;;;;;;;8215811;28;20134;-58
2024/01/22 09:20:15;;;;;;;2.05;1.33;;;;;;;;;;8226954;28;20223;-60
2024/01/22 09:24:15;;;;;;;3.20;1.45;;;;;;;;;;8218947;28;20128;-58
2024/01/22 09:28:16;;;;;;;2.47;1.40;;;;;;;;;;8222790;28;20057;-57
2024/01/22 09:32:16;;;;;;;2.90;1.40;;;;;;;;;;8215799;28;20030;-58
2024/01/22 09:36:17;;;;;;;2.63;1.40;;;;;;;;;;8218689;28;20020;-58
2024/01/22 09:40:17;;;;;;;3.72;1.20;;;;;;;;;;8215938;28;20025;-60
2024/01/22 09:44:18;;;;;;;2.40;1.40;;;;;;;;;;8214911;28;20041;-58
2024/01/22 09:48:18;;;;;;;4.03;1.30;;;;;;;;;;8221155;28;20042;-58
2024/01/22 09:52:19;;;;;;;2.47;1.20;;;;;;;;;;8221509;28;20026;-58
2024/01/22 09:56:21;;;;;;;3.03;1.40;;;;;;;;;;8224171;28;20608;-58
2024/01/22 10:00:26;;;;;;;1.40;1.15;;;;;;;;;;8219586;28;20938;-61
2024/01/22 10:04:26;;;;;;;3.80;1.17;;;;;;;;;;8218795;28;20047;-58
2024/01/22 10:08:26;;;;;;;3.42;1.45;;;;;;;;;;8222628;28;20117;-59
2024/01/22 10:12:26;;;;;;;1.40;1.10;;;;;;;;;;8224139;28;20022;-59
2024/01/22 10:16:28;;;;;;;3.45;1.50;;;;;;;;;;8221158;28;20677;-59
2024/01/22 10:20:28;;;;;;;1.23;1.10;;;;;;;;;;8219011;28;20026;-58
2024/01/22 10:24:30;;;;;;;2.38;1.10;;;;;;;;;;8217231;28;20124;-59
2024/01/22 10:28:30;;;;;;;1.83;1.08;;;;;;;;;;8219556;28;20026;-58
2024/01/22 10:32:30;;;;;;;2.90;1.33;;;;;;;;;;8216861;28;20096;-60
2024/01/22 10:36:30;;;;;;;2.25;1.13;;;;;;;;;;8219157;28;20022;-60
2024/01/22 10:40:30;;;;;;;1.42;0.90;;;;;;;;;;8232370;28;20230;-59
2024/01/22 10:44:31;;;;;;;2.65;1.30;;;;;;;;;;8233627;28;20491;-59
2024/01/22 10:48:31;;;;;;;3.70;1.45;;;;;;;;;;8234512;28;20573;-58
2024/01/22 10:52:32;;;;;;;2.20;1.13;;;;;;;;;;8238856;28;20242;-59
2024/01/22 10:56:33;;;;;;;4.18;1.60;;;;;;;;;;8238956;28;20581;-59
2024/01/22 11:00:40;;;;;;;1.20;1.10;;;;;;;;;;8232348;28;20042;-59
2024/01/22 11:04:43;;;;;;;2.65;1.30;;;;;;;;;;8237643;28;20060;-61
2024/01/22 11:08:48;;;;;;;3.20;1.30;;;;;;;;;;8234876;28;20045;-58
2024/01/22 11:12:54;;;;;;;2.55;1.40;;;;;;;;;;8231608;28;20034;-59
2024/01/22 11:16:54;;;;;;;6.32;1.40;;;;;;;;;;8236270;28;20045;-61
2024/01/22 11:21:14;;;;;;;2.30;1.40;;;;;;;;;;8219699;28;20041;-58
2024/01/22 11:25:14;;;;;;;1.65;1.33;;;;;;;;;;8215730;28;20957;-59
2024/01/22 11:29:15;;;;;;;2.70;1.30;;;;;;;;;;8218754;28;20034;-58
2024/01/22 11:33:24;;;;;;;2.28;1.30;;;;;;;;;;8211700;28;20483;-58
2024/01/22 11:37:34;;;;;;;1.33;1.10;;;;;;;;;;8214515;28;20406;-57
2024/01/22 11:41:40;;;;;;;4.50;1.30;;;;;;;;;;8223781;28;20139;-59
2024/01/22 11:45:40;;;;;;;1.42;1.00;;;;;;;;;;8214003;28;20458;-58
2024/01/22 11:49:40;;;;;;;1.13;0.95;;;;;;;;;;8229720;28;20577;-60
2024/01/22 11:53:51;;;;;;;2.58;1.10;;;;;;;;;;8228699;28;20053;-59
2024/01/22 11:57:51;;;;;;;2.05;1.15;;;;;;;;;;8231638;28;20040;-59
2024/01/22 12:02:04;;;;;;;2.47;1.13;;;;;;;;;;8230785;28;21969;-58
2024/01/22 12:06:05;;;;;;;2.42;1.20;;;;;;;;;;8235818;28;20030;-58
2024/01/22 12:10:16;;;;;;;1.98;1.30;;;;;;;;;;8231925;28;20022;-59
2024/01/22 12:14:16;;;;;;;1.30;1.10;;;;;;;;;;8236966;28;20026;-58
2024/01/22 12:18:21;;;;;;;2.95;1.08;;;;;;;;;;8229011;28;20038;-58
2024/01/22 12:22:24;;;;;;;2.78;1.20;;;;;;;;;;8214262;28;20026;-57
2024/01/22 12:26:24;;;;;;;1.20;1.10;;;;;;;;;;8214606;28;20483;-58
2024/01/22 12:30:24;;;;;;;3.53;1.20;;;;;;;;;;8217838;28;20058;-58
2024/01/22 12:34:25;;;;;;;2.42;1.17;;;;;;;;;;8215730;28;20051;-58
2024/01/22 12:38:25;;;;;;;2.67;1.40;;;;;;;;;;8211360;28;20381;-59
2024/01/22 12:42:25;;;;;;;3.75;1.60;;;;;;;;;;8206479;28;20458;-58
2024/01/22 12:46:25;;;;;;;2.35;1.20;;;;;;;;;;8207555;28;20598;-59
2024/01/22 12:50:25;;;;;;;4.70;1.60;;;;;;;;;;8210771;28;20030;-59
2024/01/22 12:54:25;;;;;;;1.63;0.90;;;;;;;;;;8214332;28;20338;-58
2024/01/22 12:58:26;;;;;;;3.88;1.33;;;;;;;;;;8218459;28;20025;-58
2024/01/22 13:02:27;;;;;;;1.92;1.20;;;;;;;;;;8211505;28;20403;-58
2024/01/22 13:06:27;;;;;;;2.45;1.42;;;;;;;;;;8209473;28;20034;-59
2024/01/22 13:10:31;;;;;;;1.50;1.20;;;;;;;;;;8210179;28;20113;-59
2024/01/22 13:14:31;;;;;;;3.47;1.30;;;;;;;;;;8216495;28;20108;-60
2024/01/22 13:18:31;;;;;;;2.50;1.40;;;;;;;;;;8216377;28;20073;-60
2024/01/22 13:22:32;;;;;;;2.67;1.20;;;;;;;;;;8214260;28;20057;-58
2024/01/22 13:26:32;;;;;;;3.25;1.63;;;;;;;;;;8212995;28;20318;-59
2024/01/22 13:30:32;;;;;;;2.17;1.20;;;;;;;;;;8210820;28;20133;-58
2024/01/22 13:34:33;;;;;;;5.05;1.67;;;;;;;;;;8218932;28;20022;-57
2024/01/22 13:38:35;;;;;;;3.22;1.48;;;;;;;;;;8215573;28;20033;-58
2024/01/22 13:42:36;;;;;;;2.80;1.50;;;;;;;;;;8218203;28;20014;-59
2024/01/22 13:46:36;;;;;;;2.30;1.20;;;;;;;;;;8208467;28;20045;-58
2024/01/22 13:50:36;;;;;;;3.30;1.00;;;;;;;;;;8213034;28;20049;-58
2024/01/22 13:54:37;;;;;;;1.23;0.93;;;;;;;;;;8216701;28;20044;-57
2024/01/22 13:58:37;;;;;;;1.13;1.10;;;;;;;;;;8213242;28;20062;-58
2024/01/22 14:02:37;;;;;;;2.05;1.40;;;;;;;;;;8215620;28;20790;-59
2024/01/22 14:06:37;;;;;;;1.50;1.10;;;;;;;;;;8198538;28;20100;-59
2024/01/22 14:10:38;;;;;;;2.35;1.20;;;;;;;;;;8218271;28;20634;-58
2024/01/22 14:14:38;;;;;;;1.63;1.15;;;;;;;;;;8220464;28;20036;-59
2024/01/22 14:18:38;;;;;;;3.72;1.60;;;;;;;;;;8221513;28;20039;-59
2024/01/22 14:22:38;;;;;;;2.95;1.40;;;;;;;;;;8221364;28;20030;-58
2024/01/22 14:26:38;;;;;;;3.60;1.63;;;;;;;;;;8224129;28;20129;-58
2024/01/22 14:30:39;;;;;;;1.90;1.10;;;;;;;;;;8231147;28;20475;-58
2024/01/22 14:34:40;;;;;;;2.60;1.20;;;;;;;;;;8235872;28;20034;-58
2024/01/22 14:38:40;;;;;;;3.33;1.02;;;;;;;;;;8230423;28;20029;-59
2024/01/22 14:42:41;;;;;;;1.38;0.80;;;;;;;;;;8211726;28;20125;-58
2024/01/22 14:46:41;;;;;;;2.15;0.80;;;;;;;;;;8211983;28;20046;-59
2024/01/22 14:50:41;;;;;;;4.68;1.10;;;;;;;;;;8210701;28;20623;-58
2024/01/22 14:54:42;;;;;;;3.67;1.35;;;;;;;;;;8213657;28;20117;-59
2024/01/22 14:58:42;;;;;;;5.28;1.38;;;;;;;;;;8211549;28;20129;-59
2024/01/22 15:02:42;;;;;;;3.80;1.25;;;;;;;;;;8209621;28;20057;-58
2024/01/22 15:06:45;;;;;;;6.22;1.55;;;;;;;;;;8210850;28;20067;-60
2024/01/22 15:10:45;;;;;;;5.13;1.10;;;;;;;;;;8209783;28;20026;-57
2024/01/22 15:14:46;;;;;;;4.75;1.27;;;;;;;;;;8208928;28;20117;-57
2024/01/22 15:18:46;;;;;;;6.93;1.33;;;;;;;;;;8208822;28;20104;-58
2024/01/22 15:22:47;;;;;;;10.23;1.58;;;;;;;;;;8235152;28;20809;-59
2024/01/22 15:26:47;;;;;;;9.13;2.20;;;;;;;;;;8234503;28;20479;-59
2024/01/22 15:30:49;;;;;;;8.77;1.60;;;;;;;;;;8227526;28;20069;-59
2024/01/22 15:34:49;;;;;;;10.07;1.85;;;;;;;;;;8234588;28;20536;-59
2024/01/22 15:38:50;;;;;;;9.48;1.95;;;;;;;;;;8233438;28;20088;-61
2024/01/22 15:42:50;;;;;;;6.35;1.38;;;;;;;;;;8231025;28;22656;-60
2024/01/22 15:46:51;;;;;;;7.75;1.40;;;;;;;;;;8233001;28;22239;-60
2024/01/22 15:50:51;;;;;;;5.57;1.20;;;;;;;;;;8232025;28;20378;-60
2024/01/22 15:54:51;;;;;;;4.55;1.30;;;;;;;;;;8241044;28;20029;-59
2024/01/22 15:58:51;;;;;;;6.70;1.02;;;;;;;;;;8224925;28;20100;-60
2024/01/22 16:02:51;;;;;;;5.07;1.00;;;;;;;;;;8230401;28;20686;-59
2024/01/22 16:06:53;;;;;;;2.92;1.10;;;;;;;;;;8230950;28;20618;-59
2024/01/22 16:10:53;;;;;;;4.28;1.45;;;;;;;;;;8227368;28;20453;-59
2024/01/22 16:14:54;;;;;;;4.75;1.08;;;;;;;;;;8232449;28;20309;-60
2024/01/22 16:18:54;;;;;;;2.45;1.13;;;;;;;;;;8227714;28;20037;-57
2024/01/22 16:22:55;;;;;;;4.05;0.98;;;;;;;;;;8206796;28;20593;-56
2024/01/22 16:26:55;;;;;;;2.83;1.00;;;;;;;;;;8206610;28;20112;-58
2024/01/22 16:30:55;;;;;;;4.10;1.40;;;;;;;;;;8213964;28;20554;-60
2024/01/22 16:34:55;;;;;;;4.28;1.08;;;;;;;;;;8228522;28;20026;-58
2024/01/22 16:38:56;;;;;;;4.55;1.00;;;;;;;;;;8224163;28;20022;-59
2024/01/22 16:42:56;;;;;;;2.22;0.85;;;;;;;;;;8221441;28;20036;-66
2024/01/22 16:46:58;;;;;;;3.47;1.30;;;;;;;;;;8226007;28;20350;-59
2024/01/22 16:50:58;;;;;;;2.58;1.13;;;;;;;;;;8224000;28;20309;-58
2024/01/22 16:54:58;;;;;;;5.00;1.25;;;;;;;;;;8223479;28;20034;-56
2024/01/22 16:59:00;;;;;;;5.17;1.43;;;;;;;;;;8222747;28;20093;-57
2024/01/22 17:03:00;;;;;;;6.72;1.60;;;;;;;;;;8194534;28;20285;-58
2024/01/22 17:07:04;;;;;;;6.75;1.73;;;;;;;;;;8199124;28;20128;-59
2024/01/22 17:11:06;;;;;;;3.83;1.20;;;;;;;;;;8196868;28;20482;-58
2024/01/22 17:15:06;;;;;;;6.28;1.88;;;;;;;;;;8196857;28;20049;-57
2024/01/22 17:19:08;;;;;;;5.85;1.80;;;;;;;;;;8198618;28;20034;-55
2024/01/22 17:23:09;;;;;;;3.63;1.80;;;;;;;;;;8201794;28;20050;-56
2024/01/22 17:27:09;;;;;;;9.45;1.70;;;;;;;;;;8205850;28;21464;-58
2024/01/22 17:31:10;;;;;;;6.20;1.75;;;;;;;;;;8206947;28;20153;-58
2024/01/22 17:35:10;;;;;;;7.72;1.95;;;;;;;;;;8206570;28;20022;-59
2024/01/22 17:39:15;;;;;;;7.65;1.85;;;;;;;;;;8210398;28;20036;-59
2024/01/22 17:43:16;;;;;;;6.20;1.60;;;;;;;;;;8205793;28;20018;-57
2024/01/22 17:47:16;;;;;;;10.35;2.38;;;;;;;;;;8205734;28;20033;-59
2024/01/22 17:51:16;;;;;;;10.18;2.88;;;;;;;;;;8204753;28;20054;-58
2024/01/22 17:55:17;;;;;;;6.80;2.20;;;;;;;;;;8207050;28;20415;-58
2024/01/22 17:59:18;;;;;;;11.35;2.38;;;;;;;;;;8204245;28;20022;-57
2024/01/22 18:03:18;;;;;;;17.05;2.63;;;;;;;;;;8202501;28;20034;-58
2024/01/22 18:07:18;;;;;;;9.23;2.57;;;;;;;;;;8203290;28;20056;-58
2024/01/22 18:11:18;;;;;;;12.02;2.45;;;;;;;;;;8213364;28;20606;-58
2024/01/22 18:15:18;;;;;;;11.27;2.40;;;;;;;;;;8209406;28;20121;-57
2024/01/22 18:19:19;;;;;;;10.88;2.28;;;;;;;;;;8207961;28;20028;-58
2024/01/22 18:23:19;;;;;;;14.15;2.30;;;;;;;;;;8224614;28;20998;-58
2024/01/22 18:27:19;;;;;;;15.90;2.88;;;;;;;;;;8230402;28;20021;-59
2024/01/22 18:31:19;;;;;;;12.63;2.70;;;;;;;;;;8227989;28;20038;-59
2024/01/22 18:35:19;;;;;;;10.60;2.30;;;;;;;;;;8230231;28;20438;-59
2024/01/22 18:39:20;;;;;;;14.70;2.60;;;;;;;;;;8227990;28;20026;-59
2024/01/22 18:43:21;;;;;;;12.35;2.47;;;;;;;;;;8210830;28;20077;-58
2024/01/22 18:47:23;;;;;;;11.88;2.70;;;;;;;;;;8211001;28;20041;-56
2024/01/22 18:51:23;;;;;;;14.70;2.65;;;;;;;;;;8213635;28;20018;-58
2024/01/22 18:55:24;;;;;;;13.60;2.70;;;;;;;;;;8227937;28;20026;-60
2024/01/22 18:59:24;;;;;;;11.23;2.58;;;;;;;;;;8227338;28;20068;-59
2024/01/22 19:03:25;;;;;;;10.40;2.40;;;;;;;;;;8232007;28;20065;-59
2024/01/22 19:07:26;;;;;;;15.00;3.28;;;;;;;;;;8229566;28;20017;-59
2024/01/22 19:11:26;;;;;;;15.80;3.42;;;;;;;;;;8229007;28;20266;-59
2024/01/22 19:15:26;;;;;;;9.48;3.08;;;;;;;;;;8228834;28;20478;-58
2024/01/22 19:19:27;;;;;;;12.07;3.00;;;;;;;;;;8226550;28;20349;-59
2024/01/22 19:23:27;;;;;;;11.07;2.40;;;;;;;;;;8226998;28;20116;-58
2024/01/22 19:27:34;;;;;;;12.45;2.60;;;;;;;;;;8226057;28;20153;-57
2024/01/22 19:31:34;;;;;;;10.38;2.63;;;;;;;;;;8224879;28;20463;-58
2024/01/22 19:35:34;;;;;;;13.40;2.40;;;;;;;;;;8208060;28;20034;-57
2024/01/22 19:39:34;;;;;;;17.02;3.00;;;;;;;;;;8206073;28;20057;-59
2024/01/22 19:43:35;;;;;;;13.60;2.10;;;;;;;;;;8205695;28;20116;-58
2024/01/22 19:47:35;;;;;;;11.13;2.53;;;;;;;;;;8202305;28;20291;-58
2024/01/22 19:51:35;;;;;;;18.20;2.08;;;;;;;;;;8208238;28;20400;-57
2024/01/22 19:55:35;;;;;;;9.05;1.88;;;;;;;;;;8207641;28;20388;-58
2024/01/22 19:59:35;;;;;;;9.63;1.77;;;;;;;;;;8205782;28;20026;-59
2024/01/22 20:03:35;;;;;;;9.43;1.80;;;;;;;;;;8208506;28;20042;-59
2024/01/22 20:07:36;;;;;;;13.02;1.88;;;;;;;;;;8203843;28;20467;-58
2024/01/22 20:11:36;;;;;;;8.32;1.90;;;;;;;;;;8205428;28;20578;-59
2024/01/22 20:15:36;;;;;;;10.57;2.47;;;;;;;;;;8205965;28;20691;-58
2024/01/22 20:19:36;;;;;;;11.52;2.15;;;;;;;;;;8206191;28;20025;-60
2024/01/22 20:23:37;;;;;;;11.75;2.17;;;;;;;;;;8214091;28;20103;-58
2024/01/22 20:27:39;;;;;;;10.35;2.15;;;;;;;;;;8221860;28;20024;-59
2024/01/22 20:31:39;;;;;;;11.07;1.80;;;;;;;;;;8221910;28;20038;-59
2024/01/22 20:35:39;;;;;;;11.63;1.90;;;;;;;;;;8228892;28;20136;-59
2024/01/22 20:39:40;;;;;;;9.73;1.95;;;;;;;;;;8222842;28;20037;-58
2024/01/22 20:43:41;;;;;;;9.90;2.00;;;;;;;;;;8215429;28;20026;-58
2024/01/22 20:47:41;;;;;;;12.00;2.30;;;;;;;;;;8204599;28;20045;-57
2024/01/22 20:51:42;;;;;;;12.73;2.50;;;;;;;;;;8203498;28;20603;-57
2024/01/22 20:55:42;;;;;;;11.63;2.47;;;;;;;;;;8204650;28;20022;-58
2024/01/22 20:59:42;;;;;;;8.80;1.77;;;;;;;;;;8201153;28;20299;-58
2024/01/22 21:03:44;;;;;;;12.90;2.15;;;;;;;;;;8205005;28;20049;-59
2024/01/22 21:07:44;;;;;;;7.53;2.17;;;;;;;;;;8213721;28;20033;-59
2024/01/22 21:11:45;;;;;;;13.93;1.77;;;;;;;;;;8224642;28;20619;-57
2024/01/22 21:15:48;;;;;;;10.75;2.33;;;;;;;;;;8214920;28;20204;-58
2024/01/22 21:19:50;;;;;;;9.30;1.90;;;;;;;;;;8216902;28;20045;-58
2024/01/22 21:23:53;;;;;;;15.93;2.38;;;;;;;;;;8216673;28;20707;-56
2024/01/22 21:27:53;;;;;;;5.32;1.20;;;;;;;;;;8229792;28;20027;-58
2024/01/22 21:31:53;;;;;;;4.32;1.27;;;;;;;;;;8221480;28;20767;-59
2024/01/22 21:35:53;;;;;;;5.30;1.33;;;;;;;;;;8203234;28;20299;-60
2024/01/22 21:39:53;;;;;;;3.70;1.00;;;;;;;;;;8207520;28;20400;-60
2024/01/22 21:43:53;;;;;;;4.22;1.20;;;;;;;;;;8210324;28;20033;-60
2024/01/22 21:47:53;;;;;;;6.03;1.45;;;;;;;;;;8210250;28;20041;-60
2024/01/22 21:51:54;;;;;;;6.35;1.25;;;;;;;;;;8214846;28;20601;-60
2024/01/22 21:55:54;;;;;;;3.97;0.93;;;;;;;;;;8216390;28;20664;-60
2024/01/22 21:59:54;;;;;;;3.72;1.00;;;;;;;;;;8204632;28;20552;-59
2024/01/22 22:03:54;;;;;;;5.35;1.20;;;;;;;;;;8206370;28;20038;-59
2024/01/22 22:07:55;;;;;;;10.57;1.80;;;;;;;;;;8200572;28;20026;-61
2024/01/22 22:11:55;;;;;;;7.05;1.83;;;;;;;;;;8202337;28;20280;-58
2024/01/22 22:15:55;;;;;;;8.18;1.52;;;;;;;;;;8212471;28;20034;-57
2024/01/22 22:19:55;;;;;;;11.10;2.05;;;;;;;;;;8211255;28;20010;-58
2024/01/22 22:23:55;;;;;;;7.68;1.67;;;;;;;;;;8206172;28;20023;-59
2024/01/22 22:27:55;;;;;;;11.75;2.47;;;;;;;;;;8209325;28;20065;-58
2024/01/22 22:31:55;;;;;;;11.13;2.33;;;;;;;;;;8209870;28;20465;-59
2024/01/22 22:35:56;;;;;;;13.60;1.88;;;;;;;;;;8208734;28;20045;-60
2024/01/22 22:39:56;;;;;;;11.77;2.20;;;;;;;;;;8211322;28;20032;-59
2024/01/22 22:43:57;;;;;;;10.75;2.63;;;;;;;;;;8208112;28;20244;-58
2024/01/22 22:47:57;;;;;;;11.10;1.95;;;;;;;;;;8208599;28;20388;-58
2024/01/22 22:51:57;;;;;;;10.65;2.10;;;;;;;;;;8207976;28;20038;-57
2024/01/22 22:55:57;;;;;;;9.25;2.47;;;;;;;;;;8212126;28;20533;-59
2024/01/22 22:59:58;;;;;;;9.80;2.13;;;;;;;;;;8211795;28;20030;-57
2024/01/22 23:03:58;;;;;;;15.68;3.00;;;;;;;;;;8203669;28;20526;-57
2024/01/22 23:07:58;;;;;;;15.25;2.10;;;;;;;;;;8209798;28;20023;-58
2024/01/22 23:11:59;;;;;;;8.85;2.13;;;;;;;;;;8208027;28;20019;-57
2024/01/22 23:15:59;;;;;;;6.32;1.63;;;;;;;;;;8202630;28;20396;-58
2024/01/22 23:19:59;;;;;;;10.18;2.05;;;;;;;;;;8209808;28;20065;-58
2024/01/22 23:24:00;;;;;;;15.02;2.70;;;;;;;;;;8216257;28;20230;-58
2024/01/22 23:28:01;;;;;;;11.50;1.70;;;;;;;;;;8234824;28;20436;-58
2024/01/22 23:32:01;;;;;;;11.48;2.33;;;;;;;;;;8239154;28;20393;-57
2024/01/22 23:36:02;;;;;;;10.70;2.15;;;;;;;;;;8236622;28;20029;-59
2024/01/22 23:40:03;;;;;;;11.18;2.30;;;;;;;;;;8256561;28;20033;-59
2024/01/22 23:44:03;;;;;;;13.55;2.70;;;;;;;;;;8236484;28;20022;-59
2024/01/22 23:48:04;;;;;;;10.75;2.28;;;;;;;;;;8234360;28;20048;-59
2024/01/22 23:52:05;;;;;;;10.77;2.10;;;;;;;;;;8235480;28;20104;-59
2024/01/22 23:56:05;;;;;;;9.10;1.77;;;;;;;;;;8237529;28;20106;-58
